Artesia Wells, TX

3:37 AM CDT on September 01, 2014 (GMT -0500)
Cotulla-La Salle County | Change Station
CLOSE
Current Station
Airport
Location: Cotulla,
Elevation: 476 ft
Nearby Weather Stations

Elev 476 ft 28.46 °N, 99.22 °W | Updated 44 minutes ago

Clear
Clear
80 °F
Feels Like 84 °F
N
8
Wind Variable Wind from SSE

Today
High -- | Low -- °F
--% Chance of Precip.
Yesterday
High -- | Low -- °F
Precip. -- in
7:15 AM 7:58 PM
Waxing Crescent, 38% visible
Pressure 29.90 in
Visibility 10.0 miles
Clouds Clear
Heat Index 84 °F
Dew Point 73 °F
Humidity 79%
Rainfall 0.00 in
Snow Depth Not available.
UV 0 out of 12
Pollen 9.00 out of 12
Air Quality Not available.
Flu Activity Not available.
METAR KCOT 010753Z AUTO 15007KT 10SM CLR 27/23 A2992 RMK AO2 SLP123 T02670228 $

More Conditions Fewer Conditions

Pressure 29.90 in
Visibility 10.0 miles
Clouds Clear
Heat Index 84 °F
Dew Point 73 °F
Humidity 79%
Rainfall 0.00 in
Snow Depth Not available.
UV 0 out of 12
Pollen 9.00 out of 12
Air Quality Not available.
Flu Activity Not available.
METAR KCOT 010753Z AUTO 15007KT 10SM CLR 27/23 A2992 RMK AO2 SLP123 T02670228 $

More Conditions Fewer Conditions

10-Day Weather Forecast

Almanac

Astronomy

Sep. 01, 2014 Rise Set
Actual Time 7:15 AM CDT 7:58 PM CDT
Civil Twilight 6:51 AM CDT 8:22 PM CDT
Nautical Twilight 6:23 AM CDT 8:50 PM CDT
Astronomical Twilight 5:54 AM CDT 9:18 PM CDT
Moon 1:29 PM CDT No Moon Set
Length of Visible Light 13h 30m
Length of Day
12h 42m
Tomorrow will be 1m 38s shorter.
Waxing Crescent, 38% of the Moon is Illuminated
Today
Waxing Crescent
Sep 2
First Quarter
Sep 8
Full
Sep 15
Last Quarter
Sep 24
New

Today's Extremes

State Highs State Lows

Community

WunderPhotos

Upload Photos

1,749,177 photos uploaded!

Nearby

Snow Depth

Station Depth Elevation
No new snow has been reported.

Earthquake Activity

City Distance Mag. Time & Date
No recent earthquake activity has been reported nearby.
Minimum magnitude displayed is 2.5.

Coastal Water Temperatures

Place Temperature
No Stations Reporting

Nearby Weather Stations